createdAt,value
2019-05-15T00:00:55.150Z,82.48
2019-05-15T00:01:55.191Z,81.34
2019-05-15T00:02:55.120Z,81.20
2019-05-15T00:03:55.107Z,80.78
2019-05-15T00:04:55.094Z,80.26
2019-05-15T00:05:55.093Z,80.40
2019-05-15T00:06:55.085Z,80.82
2019-05-15T00:07:55.136Z,80.92
2019-05-15T00:08:55.076Z,80.30
2019-05-15T00:09:55.056Z,80.82
2019-05-15T00:10:55.043Z,80.54
2019-05-15T00:11:55.037Z,80.99
2019-05-15T00:12:55.012Z,81.73
2019-05-15T00:13:55.060Z,82.77
2019-05-15T00:14:54.983Z,82.77
2019-05-15T00:15:55.019Z,82.77
2019-05-15T00:16:54.979Z,82.56
2019-05-15T00:17:54.951Z,82.77
2019-05-15T00:18:54.935Z,81.90
2019-05-15T00:19:54.995Z,81.79
2019-05-15T00:20:54.930Z,82.10
2019-05-15T00:21:54.912Z,81.59
2019-05-15T00:22:54.909Z,80.96
2019-05-15T00:23:54.893Z,80.85
2019-05-15T00:24:54.875Z,81.16
2019-05-15T00:25:54.916Z,81.16
2019-05-15T00:26:54.845Z,81.59
2019-05-15T00:27:54.833Z,81.90
2019-05-15T00:29:08.506Z,82.10
2019-05-15T00:29:57.797Z,81.69
2019-05-15T00:30:54.800Z,81.69
2019-05-15T00:31:55.005Z,81.62
2019-05-15T00:32:54.778Z,82.14
2019-05-15T00:33:54.784Z,82.56
2019-05-15T00:34:54.757Z,82.87
2019-05-15T00:35:54.766Z,82.67
2019-05-15T00:36:54.738Z,82.56
2019-05-15T00:37:54.792Z,82.77
2019-05-15T00:38:54.711Z,83.08
2019-05-15T00:39:54.723Z,82.56
2019-05-15T00:40:54.700Z,82.25
2019-05-15T00:41:54.961Z,83.40
2019-05-15T00:42:54.677Z,83.71
2019-05-15T00:43:54.866Z,82.87
2019-05-15T00:44:54.656Z,82.98
2019-05-15T00:45:54.631Z,83.23
2019-05-15T00:46:54.625Z,83.33
2019-05-15T00:47:54.618Z,83.44
2019-05-15T00:48:54.635Z,83.95
2019-05-15T00:49:54.653Z,83.75
2019-05-15T00:50:54.577Z,83.75
2019-05-15T00:51:54.591Z,84.06
2019-05-15T00:52:54.566Z,83.75
2019-05-15T00:53:54.558Z,83.33
2019-05-15T00:54:54.546Z,83.33
2019-05-15T00:55:54.594Z,83.75
2019-05-15T00:56:54.504Z,83.75
2019-05-15T00:57:54.500Z,83.33
2019-05-15T00:58:54.492Z,83.89
2019-05-15T00:59:54.497Z,83.75
2019-05-15T01:00:54.487Z,83.75
2019-05-15T01:01:54.547Z,83.95
2019-05-15T01:02:54.448Z,83.58
2019-05-15T01:03:54.435Z,83.37
2019-05-15T01:04:54.432Z,83.16
2019-05-15T01:05:54.411Z,83.37
2019-05-15T01:06:54.392Z,83.68
2019-05-15T01:07:54.483Z,83.89
2019-05-15T01:08:54.377Z,83.89
2019-05-15T01:09:54.369Z,83.78
2019-05-15T01:10:54.353Z,83.68
2019-05-15T01:11:54.338Z,83.47
2019-05-15T01:12:54.341Z,83.68
2019-05-15T01:13:55.277Z,83.89
2019-05-15T01:14:54.301Z,83.47
2019-05-15T01:15:54.295Z,84.00
2019-05-15T01:16:54.287Z,83.78
2019-05-15T01:17:54.279Z,85.08
2019-05-15T01:18:54.276Z,84.97
2019-05-15T01:19:54.337Z,85.18
2019-05-15T01:20:54.237Z,86.69
2019-05-15T01:21:54.226Z,86.44
2019-05-15T01:22:54.214Z,85.91
2019-05-15T01:23:54.198Z,85.39
2019-05-15T01:24:54.191Z,85.14
2019-05-15T01:25:54.247Z,84.41
2019-05-15T01:26:54.171Z,84.56
2019-05-15T01:27:54.191Z,83.72
2019-05-15T01:28:54.162Z,84.24
2019-05-15T01:29:54.146Z,84.24
2019-05-15T01:30:54.140Z,83.83
2019-05-15T01:31:54.173Z,83.93
2019-05-15T01:32:54.102Z,84.66
2019-05-15T01:33:54.109Z,84.56
2019-05-15T01:34:54.079Z,84.03
2019-05-15T01:35:54.078Z,84.14
2019-05-15T01:36:54.058Z,84.14
2019-05-15T01:37:54.106Z,83.51
2019-05-15T01:38:54.053Z,84.03
2019-05-15T01:39:54.037Z,84.07
2019-05-15T01:40:54.028Z,84.28
2019-05-15T01:41:53.996Z,84.70
2019-05-15T01:42:53.996Z,85.22
2019-05-15T01:43:54.090Z,85.64
2019-05-15T01:44:54.008Z,85.22
2019-05-15T01:45:53.970Z,85.01
2019-05-15T01:46:53.943Z,84.97
2019-05-15T01:47:53.930Z,85.33
2019-05-15T01:48:53.924Z,85.64
2019-05-15T01:49:53.999Z,85.85
2019-05-15T01:50:53.909Z,86.31
2019-05-15T01:51:53.889Z,87.04
2019-05-15T01:52:53.884Z,87.56
2019-05-15T01:53:53.872Z,87.35
2019-05-15T01:54:53.851Z,87.71
2019-05-15T01:55:53.911Z,88.44
2019-05-15T01:56:53.890Z,88.86
2019-05-15T01:57:53.830Z,89.28
2019-05-15T01:58:53.823Z,89.28
2019-05-15T01:59:57.445Z,89.70
2019-05-15T02:00:54.848Z,89.17
2019-05-15T02:01:53.780Z,89.28
2019-05-15T02:02:53.786Z,89.38
2019-05-15T02:03:53.765Z,90.95
2019-05-15T02:04:53.745Z,90.74
2019-05-15T02:05:53.725Z,90.16
2019-05-15T02:06:53.799Z,91.09
2019-05-15T02:07:53.706Z,90.78
2019-05-15T02:08:53.696Z,89.84
2019-05-15T02:09:53.690Z,90.72
2019-05-15T02:10:53.678Z,90.83
2019-05-15T02:11:53.659Z,91.41
2019-05-15T02:12:53.741Z,90.99
2019-05-15T02:13:53.636Z,91.20
2019-05-15T02:14:53.624Z,91.09
2019-05-15T02:15:53.624Z,90.78
2019-05-15T02:16:53.614Z,91.20
2019-05-15T02:17:53.602Z,91.09
2019-05-15T02:18:53.656Z,90.83
2019-05-15T02:19:53.584Z,91.14
2019-05-15T02:20:53.595Z,91.03
2019-05-15T02:21:53.562Z,91.14
2019-05-15T02:22:53.540Z,91.35
2019-05-15T02:23:53.521Z,90.83
2019-05-15T02:24:53.593Z,91.35
2019-05-15T02:25:53.501Z,91.03
2019-05-15T02:26:53.495Z,91.46
2019-05-15T02:27:53.482Z,91.14
2019-05-15T02:28:53.487Z,90.83
2019-05-15T02:29:53.463Z,91.46
2019-05-15T02:30:53.514Z,91.39
2019-05-15T02:31:53.437Z,92.19
2019-05-15T02:32:53.436Z,91.35
2019-05-15T02:33:53.424Z,90.97
2019-05-15T02:34:53.409Z,91.08
2019-05-15T02:35:53.454Z,92.23
2019-05-15T02:36:53.457Z,92.86
2019-05-15T02:37:53.378Z,92.33
2019-05-15T02:38:53.365Z,91.91
2019-05-15T02:39:53.368Z,92.80
2019-05-15T02:40:53.359Z,91.85
2019-05-15T02:41:53.316Z,91.75
2019-05-15T02:42:53.379Z,92.16
2019-05-15T02:43:53.297Z,92.38
2019-05-15T02:44:53.297Z,92.69
2019-05-15T02:45:53.297Z,92.80
2019-05-15T02:46:53.278Z,92.69
2019-05-15T02:47:53.246Z,92.58
2019-05-15T02:48:53.447Z,92.80
2019-05-15T02:49:53.264Z,93.63
2019-05-15T02:50:53.209Z,91.68
2019-05-15T02:51:53.200Z,92.94
2019-05-15T02:52:53.190Z,93.05
2019-05-15T02:53:53.178Z,92.25
2019-05-15T02:54:53.238Z,92.99
2019-05-15T02:55:53.155Z,92.67
2019-05-15T02:56:53.147Z,93.40
2019-05-15T02:57:53.146Z,93.62
2019-05-15T02:58:53.151Z,93.34
2019-05-15T02:59:53.120Z,93.93
2019-05-15T03:00:53.746Z,93.93
2019-05-15T03:01:53.087Z,94.14
2019-05-15T03:02:53.074Z,95.19
2019-05-15T03:03:53.067Z,94.62
2019-05-15T03:04:53.054Z,94.79
2019-05-15T03:05:53.061Z,93.84
2019-05-15T03:06:53.097Z,93.95
2019-05-15T03:07:53.027Z,93.95
2019-05-15T03:08:53.021Z,93.74
2019-05-15T03:09:52.998Z,93.21
2019-05-15T03:10:52.986Z,92.65
2019-05-15T03:11:52.977Z,92.33
2019-05-15T03:12:53.053Z,91.60
2019-05-15T03:13:52.949Z,91.50
2019-05-15T03:14:52.955Z,92.65
2019-05-15T03:15:52.965Z,92.23
2019-05-15T03:16:52.915Z,92.65
2019-05-15T03:17:52.905Z,91.60
2019-05-15T03:18:55.727Z,92.65
2019-05-15T03:19:52.903Z,92.13
2019-05-15T03:20:52.873Z,92.71
2019-05-15T03:21:52.872Z,91.35
2019-05-15T03:22:52.851Z,92.29
2019-05-15T03:23:52.839Z,92.08
2019-05-15T03:24:52.915Z,91.77
2019-05-15T03:25:52.812Z,91.46
2019-05-15T03:26:52.830Z,91.66
2019-05-15T03:27:52.789Z,92.08
2019-05-15T03:28:52.781Z,92.40
2019-05-15T03:29:52.775Z,91.24
2019-05-15T03:31:15.543Z,91.03
2019-05-15T03:32:13.434Z,90.61
2019-05-15T03:33:02.254Z,90.16
2019-05-15T03:33:54.999Z,89.88
2019-05-15T03:34:56.561Z,90.30
2019-05-15T03:35:55.015Z,90.51
2019-05-15T03:36:53.503Z,90.87
2019-05-15T03:37:52.673Z,90.70
2019-05-15T03:38:52.666Z,90.70
2019-05-15T03:39:52.652Z,91.22
2019-05-15T03:40:52.647Z,90.87
2019-05-15T03:41:52.701Z,91.71
2019-05-15T03:42:52.621Z,91.28
2019-05-15T03:43:52.606Z,91.18
2019-05-15T03:44:52.601Z,91.28
2019-05-15T03:45:52.593Z,91.03
2019-05-15T03:46:52.574Z,91.03
2019-05-15T03:47:52.638Z,91.08
2019-05-15T03:48:52.552Z,91.03
2019-05-15T03:49:52.539Z,90.51
2019-05-15T03:50:52.540Z,90.78
2019-05-15T03:51:52.537Z,91.09
2019-05-15T03:52:52.519Z,90.43
2019-05-15T03:53:52.571Z,89.90
2019-05-15T03:54:52.495Z,89.80
2019-05-15T03:55:52.467Z,89.17
2019-05-15T03:56:52.458Z,89.48
2019-05-15T03:57:52.454Z,89.38
2019-05-15T03:58:52.435Z,89.17
2019-05-15T03:59:52.492Z,89.28
2019-05-15T04:00:52.407Z,89.07
2019-05-15T04:01:52.398Z,89.07
2019-05-15T04:02:52.384Z,88.75
2019-05-15T04:03:52.380Z,88.75
2019-05-15T04:04:56.558Z,89.07
2019-05-15T04:05:53.425Z,88.23
2019-05-15T04:06:52.339Z,88.75
2019-05-15T04:07:52.326Z,88.65
2019-05-15T04:08:52.314Z,88.54
2019-05-15T04:09:52.305Z,88.61
2019-05-15T04:10:52.295Z,88.92
2019-05-15T04:11:52.358Z,88.86
2019-05-15T04:12:52.273Z,88.82
2019-05-15T04:13:52.258Z,88.40
2019-05-15T04:14:52.258Z,88.71
2019-05-15T04:15:52.236Z,88.96
2019-05-15T04:16:52.231Z,89.23
2019-05-15T04:17:52.279Z,88.82
2019-05-15T04:18:52.202Z,88.92
2019-05-15T04:19:52.195Z,88.26
2019-05-15T04:20:52.182Z,87.69
2019-05-15T04:21:52.168Z,86.75
2019-05-15T04:22:52.158Z,86.44
2019-05-15T04:23:52.211Z,86.40
2019-05-15T04:24:52.134Z,85.04
2019-05-15T04:25:52.124Z,84.58
2019-05-15T04:26:52.113Z,83.75
2019-05-15T04:27:52.150Z,83.29
2019-05-15T04:28:52.138Z,82.87
2019-05-15T04:29:52.164Z,81.90
2019-05-15T04:30:52.071Z,81.86
2019-05-15T04:32:01.072Z,81.96
2019-05-15T04:32:53.055Z,81.34
2019-05-15T04:33:52.100Z,80.88
2019-05-15T04:34:52.036Z,80.57
2019-05-15T04:35:52.083Z,80.12
2019-05-15T04:36:52.024Z,80.02
2019-05-15T04:37:51.999Z,79.18
2019-05-15T04:38:52.055Z,79.91
2019-05-15T04:39:52.056Z,79.80
2019-05-15T04:40:51.965Z,80.12
2019-05-15T04:41:52.220Z,80.22
2019-05-15T04:42:51.969Z,79.63
2019-05-15T04:43:51.932Z,80.16
2019-05-15T04:44:51.945Z,80.47
2019-05-15T04:45:51.906Z,80.54
2019-05-15T04:46:51.899Z,80.22
2019-05-15T04:47:51.990Z,79.70
2019-05-15T04:48:51.872Z,79.60
2019-05-15T04:49:51.873Z,80.33
2019-05-15T04:50:51.869Z,80.22
2019-05-15T04:51:51.839Z,80.54
2019-05-15T04:52:51.831Z,80.40
2019-05-15T04:53:51.966Z,80.29
2019-05-15T04:54:51.814Z,80.29
2019-05-15T04:55:51.835Z,79.87
2019-05-15T04:56:51.820Z,79.98
2019-05-15T04:57:51.786Z,79.00
2019-05-15T04:58:51.754Z,78.45
2019-05-15T04:59:52.009Z,77.75
2019-05-15T05:00:51.751Z,76.99
2019-05-15T05:02:13.010Z,77.89
2019-05-15T05:02:52.713Z,76.95
2019-05-15T05:03:51.700Z,75.71
2019-05-15T05:04:51.698Z,76.02
2019-05-15T05:05:51.777Z,75.92
2019-05-15T05:06:51.664Z,76.43
2019-05-15T05:07:51.676Z,76.12
2019-05-15T05:08:51.647Z,76.12
2019-05-15T05:09:51.632Z,76.23
2019-05-15T05:10:51.622Z,76.40
2019-05-15T05:11:51.676Z,75.88
2019-05-15T05:12:51.598Z,75.88
2019-05-15T05:13:51.598Z,75.15
2019-05-15T05:14:51.588Z,76.29
2019-05-15T05:15:51.569Z,75.85
2019-05-15T05:16:51.554Z,75.98
2019-05-15T05:17:51.618Z,76.16
2019-05-15T05:18:51.526Z,75.85
2019-05-15T05:19:51.567Z,75.64
2019-05-15T05:20:51.512Z,75.81
2019-05-15T05:21:51.499Z,74.98
2019-05-15T05:22:51.511Z,74.88
2019-05-15T05:23:51.691Z,74.57
2019-05-15T05:24:51.459Z,73.80
2019-05-15T05:25:51.446Z,73.91
2019-05-15T05:26:51.440Z,73.67
2019-05-15T05:27:51.422Z,74.29
2019-05-15T05:28:51.417Z,73.15
2019-05-15T05:29:51.620Z,73.63
2019-05-15T05:30:51.397Z,74.05
2019-05-15T05:31:51.376Z,72.70
2019-05-15T05:32:51.371Z,73.01
2019-05-15T05:33:51.354Z,72.98
2019-05-15T05:34:51.340Z,72.84
2019-05-15T05:35:51.397Z,72.53
2019-05-15T05:36:51.330Z,72.39
2019-05-15T05:37:51.310Z,70.84
2019-05-15T05:38:51.295Z,70.29
2019-05-15T05:39:51.284Z,69.32
2019-05-15T05:40:51.292Z,68.98
2019-05-15T05:41:51.331Z,68.64
2019-05-15T05:42:51.259Z,66.41
2019-05-15T05:43:51.242Z,65.97
2019-05-15T05:44:51.228Z,64.15
2019-05-15T05:45:51.216Z,62.54
2019-05-15T05:46:51.206Z,61.05
2019-05-15T05:47:51.269Z,60.19
2019-05-15T05:48:51.191Z,58.42
2019-05-15T05:49:51.170Z,59.11
2019-05-15T05:50:51.160Z,57.08
2019-05-15T05:51:51.151Z,56.34
2019-05-15T05:52:51.135Z,56.20
2019-05-15T05:53:51.339Z,54.87
2019-05-15T05:54:51.123Z,53.61
2019-05-15T05:55:53.196Z,54.95
2019-05-15T05:56:51.092Z,54.59
2019-05-15T05:57:51.086Z,53.26
2019-05-15T05:58:51.070Z,53.56
2019-05-15T05:59:51.124Z,52.42
2019-05-15T06:00:51.052Z,51.90
2019-05-15T06:01:51.039Z,51.62
2019-05-15T06:02:52.303Z,51.21
2019-05-15T06:03:51.018Z,51.85
2019-05-15T06:04:51.001Z,51.69
2019-05-15T06:05:51.056Z,52.61
2019-05-15T06:07:06.055Z,52.59
2019-05-15T06:07:51.969Z,52.15
2019-05-15T06:08:50.953Z,52.28
2019-05-15T06:09:50.942Z,52.28
2019-05-15T06:10:50.932Z,52.18
2019-05-15T06:11:50.986Z,52.69
2019-05-15T06:12:50.917Z,51.67
2019-05-15T06:13:52.614Z,51.36
2019-05-15T06:14:50.885Z,50.95
2019-05-15T06:15:50.883Z,52.39
2019-05-15T06:16:50.865Z,51.01
2019-05-15T06:17:50.918Z,51.15
2019-05-15T06:18:50.851Z,51.90
2019-05-15T06:19:50.861Z,51.15
2019-05-15T06:20:50.815Z,50.80
2019-05-15T06:21:56.679Z,50.09
2019-05-15T06:22:51.864Z,50.98
2019-05-15T06:23:55.164Z,50.24
2019-05-15T06:24:51.774Z,50.16
2019-05-15T06:25:50.760Z,49.22
2019-05-15T06:26:50.754Z,49.14
2019-05-15T06:27:50.739Z,50.52
2019-05-15T06:28:50.837Z,50.31
2019-05-15T06:29:50.724Z,50.31
2019-05-15T06:30:50.703Z,50.93
2019-05-15T06:31:50.688Z,51.79
2019-05-15T06:33:04.548Z,53.12
2019-05-15T06:33:51.752Z,52.97
2019-05-15T06:34:50.653Z,54.79
2019-05-15T06:35:50.649Z,56.34
2019-05-15T06:36:50.631Z,56.59
2019-05-15T06:37:50.620Z,56.70
2019-05-15T06:38:50.614Z,57.10
2019-05-15T06:39:50.818Z,57.31
2019-05-15T06:40:50.586Z,56.67
2019-05-15T06:41:50.586Z,56.57
2019-05-15T06:42:50.569Z,57.34
2019-05-15T06:43:50.551Z,57.01
2019-05-15T06:44:50.545Z,58.47
2019-05-15T06:45:50.610Z,58.91
2019-05-15T06:46:50.534Z,59.33
2019-05-15T06:47:50.512Z,59.14
2019-05-15T06:48:50.503Z,59.35
2019-05-15T06:49:50.483Z,59.79
2019-05-15T06:50:50.473Z,59.97
2019-05-15T06:51:50.527Z,59.97
2019-05-15T06:52:50.454Z,59.35
2019-05-15T06:53:50.434Z,59.01
2019-05-15T06:54:50.428Z,58.81
2019-05-15T06:55:50.411Z,58.47
2019-05-15T06:56:50.405Z,57.31
2019-05-15T06:57:50.460Z,56.34
2019-05-15T06:58:50.380Z,56.64
2019-05-15T06:59:50.366Z,56.41
2019-05-15T07:00:50.355Z,54.36
2019-05-15T07:01:50.347Z,53.85
2019-05-15T07:02:50.339Z,53.36
2019-05-15T07:03:50.394Z,54.51
2019-05-15T07:04:50.309Z,54.51
2019-05-15T07:05:51.073Z,54.41
2019-05-15T07:06:50.290Z,54.87
2019-05-15T07:07:50.277Z,55.38
2019-05-15T07:08:50.269Z,55.90
2019-05-15T07:09:50.341Z,55.79
2019-05-15T07:10:50.260Z,55.90
2019-05-15T07:11:50.233Z,55.87
2019-05-15T07:12:51.524Z,54.90
2019-05-15T07:13:50.206Z,54.92
2019-05-15T07:14:50.205Z,56.02
2019-05-15T07:15:50.255Z,54.82
2019-05-15T07:16:50.180Z,56.23
2019-05-15T07:17:50.177Z,55.59
2019-05-15T07:18:50.156Z,54.72
2019-05-15T07:19:50.138Z,53.61
2019-05-15T07:20:50.156Z,54.43
2019-05-15T07:21:50.188Z,54.00
2019-05-15T07:22:50.116Z,52.67
2019-05-15T07:23:50.105Z,51.26
2019-05-15T07:24:51.706Z,50.65
2019-05-15T07:25:50.408Z,49.65
2019-05-15T07:26:50.062Z,50.06
2019-05-15T07:27:50.116Z,49.91
2019-05-15T07:28:50.036Z,49.11
2019-05-15T07:29:50.025Z,49.27
2019-05-15T07:30:50.019Z,48.28
2019-05-15T07:31:50.000Z,46.63
2019-05-15T07:32:49.995Z,46.73
2019-05-15T07:33:50.209Z,45.61
2019-05-15T07:34:49.979Z,46.25
2019-05-15T07:35:49.966Z,46.37
2019-05-15T07:36:49.963Z,46.70
2019-05-15T07:37:49.941Z,48.74
2019-05-15T07:38:49.931Z,48.21
2019-05-15T07:39:50.000Z,46.70
2019-05-15T07:40:59.289Z,46.73
2019-05-15T07:41:50.902Z,44.63
2019-05-15T07:42:49.883Z,42.92
2019-05-15T07:43:49.864Z,42.59
2019-05-15T07:44:49.858Z,41.94
2019-05-15T07:45:55.292Z,40.84
2019-05-15T07:46:50.843Z,40.81
2019-05-15T07:47:49.818Z,40.28
2019-05-15T07:48:49.843Z,38.86
2019-05-15T07:49:49.796Z,40.32
2019-05-15T07:50:50.073Z,40.54
2019-05-15T07:51:49.847Z,40.97
2019-05-15T07:52:49.787Z,41.63
2019-05-15T07:53:49.753Z,44.79
2019-05-15T07:54:49.740Z,46.86
2019-05-15T07:55:51.165Z,46.72
2019-05-15T07:56:49.729Z,46.62
2019-05-15T07:57:49.769Z,48.27
2019-05-15T07:58:52.458Z,49.04
2019-05-15T07:59:49.680Z,50.29
2019-05-15T08:00:49.672Z,50.98
2019-05-15T08:01:49.657Z,50.26
2019-05-15T08:02:49.650Z,50.55
2019-05-15T08:03:58.979Z,50.70
2019-05-15T08:04:50.633Z,50.72
2019-05-15T08:05:58.631Z,50.72
2019-05-15T08:06:50.603Z,51.82
2019-05-15T08:07:49.594Z,49.67
2019-05-15T08:08:49.608Z,49.47
2019-05-15T08:09:49.645Z,50.47
2019-05-15T08:10:49.552Z,49.93
2019-05-15T08:11:49.555Z,49.30
2019-05-15T08:12:49.699Z,49.38
2019-05-15T08:13:49.521Z,47.82
2019-05-15T08:14:50.855Z,46.57
2019-05-15T08:15:49.568Z,46.98
2019-05-15T08:16:49.499Z,45.57
2019-05-15T08:18:03.923Z,44.84
2019-05-15T08:18:50.465Z,45.88
2019-05-15T08:19:49.463Z,44.88
2019-05-15T08:20:49.510Z,45.61
2019-05-15T08:21:51.764Z,44.20
2019-05-15T08:22:49.415Z,44.57
2019-05-15T08:23:49.405Z,43.16
2019-05-15T08:24:49.393Z,42.32
2019-05-15T08:25:49.380Z,42.02
2019-05-15T08:26:49.370Z,42.41
2019-05-15T08:27:49.426Z,42.36
2019-05-15T08:28:49.348Z,42.94
2019-05-15T08:29:49.337Z,42.30
2019-05-15T08:30:49.982Z,42.22
2019-05-15T08:31:49.321Z,42.22
2019-05-15T08:32:51.672Z,42.73
2019-05-15T08:33:49.365Z,42.73
2019-05-15T08:34:49.277Z,42.94
2019-05-15T08:35:51.821Z,42.22
2019-05-15T08:36:49.256Z,42.63
2019-05-15T08:37:49.277Z,42.12
2019-05-15T08:38:49.235Z,42.12
2019-05-15T08:39:49.294Z,42.43
2019-05-15T08:40:49.357Z,42.71
2019-05-15T08:41:49.198Z,42.10
2019-05-15T08:42:56.396Z,41.67
2019-05-15T08:43:50.175Z,40.88
2019-05-15T08:44:49.167Z,41.92
2019-05-15T08:45:49.945Z,41.42
2019-05-15T08:46:49.142Z,41.53
2019-05-15T08:47:49.456Z,41.63
2019-05-15T08:48:49.322Z,40.67
2019-05-15T08:49:49.126Z,41.49
2019-05-15T08:50:49.224Z,41.06
2019-05-15T08:51:49.163Z,41.37
2019-05-15T08:52:49.085Z,41.25
2019-05-15T08:53:49.062Z,42.27
2019-05-15T08:54:49.069Z,41.86
2019-05-15T08:55:49.052Z,40.82
2019-05-15T08:56:49.030Z,40.60
2019-05-15T08:57:55.725Z,39.40
2019-05-15T08:58:50.005Z,38.31
2019-05-15T08:59:49.007Z,39.25
2019-05-15T09:00:52.218Z,40.78
2019-05-15T09:01:49.148Z,40.25
2019-05-15T09:02:49.058Z,39.51
2019-05-15T09:03:49.181Z,39.23
2019-05-15T09:04:48.936Z,39.37
2019-05-15T09:05:48.957Z,40.08
2019-05-15T09:06:49.643Z,39.96
2019-05-15T09:07:48.930Z,39.78
2019-05-15T09:08:49.208Z,39.35
2019-05-15T09:09:49.098Z,39.55
2019-05-15T09:10:50.392Z,38.82
2019-05-15T09:11:48.871Z,39.65
2019-05-15T09:12:50.368Z,39.23
2019-05-15T09:13:53.891Z,39.31
2019-05-15T09:14:49.891Z,38.40
2019-05-15T09:15:48.808Z,39.62
2019-05-15T09:16:49.139Z,38.90
2019-05-15T09:17:48.982Z,38.48
2019-05-15T09:18:48.786Z,38.87
2019-05-15T09:19:48.780Z,39.15
2019-05-15T09:20:49.523Z,38.63
2019-05-15T09:21:49.442Z,36.78
2019-05-15T09:22:49.123Z,37.61
2019-05-15T09:23:49.954Z,38.32
2019-05-15T09:24:49.080Z,38.51
2019-05-15T09:25:49.594Z,37.30
2019-05-15T09:26:48.961Z,38.45
2019-05-15T09:27:48.977Z,38.10
2019-05-15T09:28:49.381Z,38.39
2019-05-15T09:29:48.673Z,36.93
2019-05-15T09:30:48.649Z,37.17
2019-05-15T09:31:48.625Z,36.66
2019-05-15T09:32:48.739Z,37.71
2019-05-15T09:33:49.270Z,36.88
2019-05-15T09:34:54.828Z,37.07
2019-05-15T09:35:49.596Z,35.73
2019-05-15T09:36:48.783Z,36.12
2019-05-15T09:37:48.909Z,35.92
2019-05-15T09:38:49.227Z,36.25
2019-05-15T09:39:49.065Z,36.97
2019-05-15T09:40:50.331Z,36.54
2019-05-15T09:41:48.843Z,35.92
2019-05-15T09:42:48.838Z,35.70
2019-05-15T09:43:48.695Z,35.70
2019-05-15T09:44:48.754Z,35.07
2019-05-15T09:45:49.210Z,36.95
2019-05-15T09:46:48.945Z,35.92
2019-05-15T09:47:48.635Z,35.60
2019-05-15T09:48:51.592Z,34.38
2019-05-15T09:49:48.642Z,33.79
2019-05-15T09:50:49.249Z,34.80
2019-05-15T09:51:49.043Z,34.58
2019-05-15T09:52:50.154Z,34.95
2019-05-15T09:53:48.641Z,35.53
2019-05-15T09:54:49.297Z,34.13
2019-05-15T09:55:49.431Z,35.04
2019-05-15T09:56:49.478Z,35.33
2019-05-15T09:57:49.062Z,34.17
2019-05-15T09:58:48.949Z,34.18
2019-05-15T09:59:48.886Z,34.01
2019-05-15T10:00:52.249Z,34.43
2019-05-15T10:01:49.359Z,35.53
2019-05-15T10:02:48.741Z,35.01
2019-05-15T10:03:48.584Z,34.25
2019-05-15T10:04:57.377Z,35.46
2019-05-15T10:05:49.256Z,34.85
2019-05-15T10:06:48.656Z,35.28
2019-05-15T10:07:48.286Z,35.50
2019-05-15T10:08:49.061Z,34.75
2019-05-15T10:09:48.814Z,34.34
2019-05-15T10:10:48.892Z,35.48
2019-05-15T10:11:49.203Z,35.68
2019-05-15T10:12:49.486Z,35.68
2019-05-15T10:13:48.217Z,34.87
2019-05-15T10:14:49.208Z,35.58
2019-05-15T10:15:50.827Z,35.61
2019-05-15T10:16:48.606Z,37.05
2019-05-15T10:17:51.046Z,37.07
2019-05-15T10:18:51.215Z,37.29
2019-05-15T10:19:48.855Z,37.70
2019-05-15T10:20:48.084Z,37.19
2019-05-15T10:21:52.853Z,37.29
2019-05-15T10:22:49.042Z,38.41
2019-05-15T10:23:49.256Z,37.21
2019-05-15T10:24:50.825Z,38.12
2019-05-15T10:25:48.657Z,38.53
2019-05-15T10:26:49.040Z,38.43
2019-05-15T10:27:48.765Z,37.21
2019-05-15T10:28:49.262Z,38.24
2019-05-15T10:29:48.432Z,38.80
2019-05-15T10:30:49.283Z,39.23
2019-05-15T10:31:48.342Z,40.88
2019-05-15T10:32:48.715Z,40.55
2019-05-15T10:33:49.188Z,40.41
2019-05-15T10:34:47.908Z,39.29
2019-05-15T10:35:47.894Z,40.43
2019-05-15T10:36:49.500Z,40.84
2019-05-15T10:37:48.850Z,40.84
2019-05-15T10:38:48.836Z,40.31
2019-05-15T10:39:52.096Z,40.43
2019-05-15T10:40:59.816Z,40.76
2019-05-15T10:41:48.829Z,40.88
2019-05-15T10:42:49.509Z,41.96
2019-05-15T10:43:55.855Z,42.04
2019-05-15T10:44:48.934Z,41.53
2019-05-15T10:45:50.101Z,41.72
2019-05-15T10:46:48.419Z,40.60
2019-05-15T10:47:49.563Z,40.78
2019-05-15T10:48:49.323Z,40.80
2019-05-15T10:49:48.469Z,41.52
2019-05-15T10:50:47.728Z,41.29
2019-05-15T10:51:47.713Z,40.78
2019-05-15T10:52:48.949Z,41.21
2019-05-15T10:53:48.822Z,40.60
2019-05-15T10:54:47.698Z,40.52
2019-05-15T10:55:49.501Z,41.75
2019-05-15T10:56:47.660Z,41.78
2019-05-15T10:57:47.704Z,41.78
2019-05-15T10:58:50.216Z,41.67
2019-05-15T10:59:47.905Z,42.10
2019-05-15T11:00:49.384Z,42.10
2019-05-15T11:01:48.695Z,40.96
2019-05-15T11:02:48.955Z,41.25
2019-05-15T11:03:49.505Z,41.66
2019-05-15T11:04:48.719Z,41.96
2019-05-15T11:05:49.137Z,41.86
2019-05-15T11:06:49.033Z,41.96
2019-05-15T11:07:48.218Z,42.29
2019-05-15T11:08:51.027Z,42.06
2019-05-15T11:09:48.945Z,42.27
2019-05-15T11:10:49.443Z,43.49
2019-05-15T11:11:51.197Z,42.57
2019-05-15T11:12:47.654Z,42.65
2019-05-15T11:13:47.532Z,42.47
2019-05-15T11:14:47.462Z,42.16
2019-05-15T11:15:49.119Z,42.39
2019-05-15T11:16:48.681Z,42.39
2019-05-15T11:17:49.201Z,42.49
2019-05-15T11:18:48.180Z,42.61
2019-05-15T11:19:49.782Z,42.30
2019-05-15T11:20:48.638Z,43.23
2019-05-15T11:21:48.498Z,43.41
2019-05-15T11:22:50.006Z,43.51
2019-05-15T11:23:49.370Z,42.57
2019-05-15T11:24:50.795Z,41.75
2019-05-15T11:25:48.899Z,41.86
2019-05-15T11:26:50.000Z,42.57
2019-05-15T11:27:48.452Z,43.37
2019-05-15T11:28:49.668Z,43.55
2019-05-15T11:29:47.764Z,42.13
2019-05-15T11:30:49.005Z,41.61
2019-05-15T11:31:48.763Z,41.84
2019-05-15T11:32:48.605Z,40.82
2019-05-15T11:33:49.250Z,40.52
2019-05-15T11:34:49.264Z,40.74
2019-05-15T11:36:00.139Z,41.35
2019-05-15T11:36:48.666Z,41.96
2019-05-15T11:37:56.036Z,41.67
2019-05-15T11:38:48.570Z,41.67
2019-05-15T11:39:47.501Z,41.71
2019-05-15T11:40:47.148Z,42.33
2019-05-15T11:41:49.297Z,42.43
2019-05-15T11:42:48.795Z,42.10
2019-05-15T11:43:49.550Z,42.33
2019-05-15T11:44:48.404Z,41.82
2019-05-15T11:45:48.175Z,42.21
2019-05-15T11:46:49.367Z,42.21
2019-05-15T11:47:48.316Z,42.02
2019-05-15T11:48:49.704Z,42.21
2019-05-15T11:49:47.055Z,42.00
2019-05-15T11:50:47.038Z,41.37
2019-05-15T11:51:49.177Z,42.00
2019-05-15T11:52:47.022Z,42.63
2019-05-15T11:53:49.223Z,42.41
2019-05-15T11:54:49.450Z,42.00
2019-05-15T11:55:48.081Z,42.00
2019-05-15T11:56:49.059Z,42.21
2019-05-15T11:57:50.501Z,42.41
2019-05-15T11:58:46.950Z,42.29
2019-05-15T11:59:54.778Z,42.27
2019-05-15T12:00:49.155Z,42.16
2019-05-15T12:01:48.933Z,42.35
2019-05-15T12:02:46.900Z,42.14
2019-05-15T12:03:46.893Z,42.13
2019-05-15T12:04:46.878Z,42.41
2019-05-15T12:05:46.870Z,40.77
2019-05-15T12:06:58.730Z,42.00
2019-05-15T12:07:48.069Z,42.00
2019-05-15T12:08:46.856Z,42.21
2019-05-15T12:09:46.822Z,41.60
2019-05-15T12:10:46.811Z,41.56
2019-05-15T12:11:46.802Z,40.64
2019-05-15T12:12:49.456Z,41.46
2019-05-15T12:13:46.771Z,41.27
2019-05-15T12:14:49.480Z,41.66
2019-05-15T12:15:48.477Z,41.84
2019-05-15T12:17:02.401Z,41.01
2019-05-15T12:17:48.518Z,40.69
2019-05-15T12:18:48.324Z,40.50
2019-05-15T12:19:54.844Z,40.81
2019-05-15T12:20:48.705Z,40.18
2019-05-15T12:21:48.876Z,41.07
2019-05-15T12:22:48.568Z,39.04
2019-05-15T12:23:48.796Z,39.06
2019-05-15T12:24:49.966Z,39.15
2019-05-15T12:25:48.860Z,39.65
2019-05-15T12:26:48.972Z,40.40
2019-05-15T12:27:49.111Z,40.50
2019-05-15T12:28:48.879Z,40.38
2019-05-15T12:29:49.111Z,41.62
2019-05-15T12:30:49.247Z,40.70
2019-05-15T12:31:48.998Z,40.62
2019-05-15T12:32:49.277Z,40.99
2019-05-15T12:33:48.873Z,40.18
2019-05-15T12:34:49.274Z,40.28
2019-05-15T12:35:50.289Z,39.98
2019-05-15T12:36:53.098Z,40.08
2019-05-15T12:37:47.501Z,40.28
2019-05-15T12:38:50.041Z,40.56
2019-05-15T12:39:49.144Z,38.84
2019-05-15T12:59:47.322Z,39.31
2019-05-15T13:00:46.239Z,39.21
2019-05-15T13:01:46.218Z,38.95
2019-05-15T13:02:46.217Z,40.99
2019-05-15T13:03:48.487Z,41.07
2019-05-15T13:04:46.191Z,40.48
2019-05-15T13:05:48.560Z,40.77
2019-05-15T13:06:59.409Z,40.47
2019-05-15T13:07:48.313Z,40.14
2019-05-15T13:08:48.697Z,40.55
2019-05-15T13:09:46.126Z,39.96
2019-05-15T13:10:48.637Z,39.17
2019-05-15T13:11:48.364Z,39.15